sensor_id;sensor_type;location;lat;lon;timestamp;P1;durP1;ratioP1;P2;durP2;ratioP2
62941;SDS011;49042;47.318;19.874;2023-11-21T00:01:42;18.58;;;13.35;;
62941;SDS011;49042;47.318;19.874;2023-11-21T00:04:44;20.25;;;12.98;;
62941;SDS011;49042;47.318;19.874;2023-11-21T00:07:47;20.10;;;13.32;;
62941;SDS011;49042;47.318;19.874;2023-11-21T00:10:48;18.48;;;12.68;;
62941;SDS011;49042;47.318;19.874;2023-11-21T00:13:50;20.58;;;13.43;;
62941;SDS011;49042;47.318;19.874;2023-11-21T00:16:52;22.13;;;12.75;;
62941;SDS011;49042;47.318;19.874;2023-11-21T00:19:53;24.58;;;12.25;;
62941;SDS011;49042;47.318;19.874;2023-11-21T00:22:55;17.77;;;12.77;;
62941;SDS011;49042;47.318;19.874;2023-11-21T00:25:56;22.27;;;11.82;;
62941;SDS011;49042;47.318;19.874;2023-11-21T00:28:58;17.20;;;11.10;;
62941;SDS011;49042;47.318;19.874;2023-11-21T00:32:00;22.17;;;11.40;;
62941;SDS011;49042;47.318;19.874;2023-11-21T00:35:01;17.73;;;11.48;;
62941;SDS011;49042;47.318;19.874;2023-11-21T00:38:03;20.10;;;12.40;;
62941;SDS011;49042;47.318;19.874;2023-11-21T00:41:04;19.98;;;11.80;;
62941;SDS011;49042;47.318;19.874;2023-11-21T00:44:06;22.25;;;12.45;;
62941;SDS011;49042;47.318;19.874;2023-11-21T00:47:08;22.67;;;12.20;;
62941;SDS011;49042;47.318;19.874;2023-11-21T00:50:10;17.35;;;11.65;;
62941;SDS011;49042;47.318;19.874;2023-11-21T00:53:11;20.33;;;13.60;;
62941;SDS011;49042;47.318;19.874;2023-11-21T00:56:13;22.05;;;13.02;;
62941;SDS011;49042;47.318;19.874;2023-11-21T00:59:15;29.15;;;16.50;;
62941;SDS011;49042;47.318;19.874;2023-11-21T01:02:16;36.75;;;17.42;;
62941;SDS011;49042;47.318;19.874;2023-11-21T01:05:18;35.60;;;19.05;;
62941;SDS011;49042;47.318;19.874;2023-11-21T01:08:21;42.05;;;20.80;;
62941;SDS011;49042;47.318;19.874;2023-11-21T01:11:23;28.00;;;16.42;;
62941;SDS011;49042;47.318;19.874;2023-11-21T01:14:24;27.33;;;15.07;;
62941;SDS011;49042;47.318;19.874;2023-11-21T01:17:28;29.90;;;14.40;;
62941;SDS011;49042;47.318;19.874;2023-11-21T01:20:29;19.52;;;12.55;;
62941;SDS011;49042;47.318;19.874;2023-11-21T01:23:31;22.10;;;12.18;;
62941;SDS011;49042;47.318;19.874;2023-11-21T01:26:33;21.98;;;12.82;;
62941;SDS011;49042;47.318;19.874;2023-11-21T01:29:35;19.67;;;11.35;;
62941;SDS011;49042;47.318;19.874;2023-11-21T01:32:36;18.60;;;11.55;;
62941;SDS011;49042;47.318;19.874;2023-11-21T01:35:38;18.67;;;10.55;;
62941;SDS011;49042;47.318;19.874;2023-11-21T01:38:40;14.75;;;10.70;;
62941;SDS011;49042;47.318;19.874;2023-11-21T01:41:42;17.55;;;10.48;;
62941;SDS011;49042;47.318;19.874;2023-11-21T01:44:45;19.20;;;11.15;;
62941;SDS011;49042;47.318;19.874;2023-11-21T01:47:47;15.35;;;10.15;;
62941;SDS011;49042;47.318;19.874;2023-11-21T01:50:49;14.85;;;10.77;;
62941;SDS011;49042;47.318;19.874;2023-11-21T01:53:51;18.48;;;11.00;;
62941;SDS011;49042;47.318;19.874;2023-11-21T01:56:54;17.65;;;11.32;;
62941;SDS011;49042;47.318;19.874;2023-11-21T01:59:55;20.60;;;11.73;;
62941;SDS011;49042;47.318;19.874;2023-11-21T02:02:57;18.65;;;10.65;;
62941;SDS011;49042;47.318;19.874;2023-11-21T02:06:00;18.30;;;11.60;;
62941;SDS011;49042;47.318;19.874;2023-11-21T02:09:01;16.25;;;11.05;;
62941;SDS011;49042;47.318;19.874;2023-11-21T02:12:03;16.62;;;10.95;;
62941;SDS011;49042;47.318;19.874;2023-11-21T02:15:05;19.60;;;11.50;;
62941;SDS011;49042;47.318;19.874;2023-11-21T02:18:10;18.83;;;11.40;;
62941;SDS011;49042;47.318;19.874;2023-11-21T02:21:12;19.30;;;11.18;;
62941;SDS011;49042;47.318;19.874;2023-11-21T02:24:14;16.12;;;10.70;;
62941;SDS011;49042;47.318;19.874;2023-11-21T02:27:15;18.70;;;11.38;;
62941;SDS011;49042;47.318;19.874;2023-11-21T02:30:22;21.27;;;11.40;;
62941;SDS011;49042;47.318;19.874;2023-11-21T02:33:24;14.77;;;10.70;;
62941;SDS011;49042;47.318;19.874;2023-11-21T02:36:26;18.52;;;11.25;;
62941;SDS011;49042;47.318;19.874;2023-11-21T02:39:27;19.55;;;11.38;;
62941;SDS011;49042;47.318;19.874;2023-11-21T02:42:29;16.02;;;10.57;;
62941;SDS011;49042;47.318;19.874;2023-11-21T02:45:31;20.02;;;12.10;;
62941;SDS011;49042;47.318;19.874;2023-11-21T02:48:33;22.70;;;12.07;;
62941;SDS011;49042;47.318;19.874;2023-11-21T02:51:34;16.10;;;11.05;;
62941;SDS011;49042;47.318;19.874;2023-11-21T02:54:36;16.45;;;10.45;;
62941;SDS011;49042;47.318;19.874;2023-11-21T02:57:37;15.95;;;10.73;;
62941;SDS011;49042;47.318;19.874;2023-11-21T03:00:39;17.90;;;10.55;;
62941;SDS011;49042;47.318;19.874;2023-11-21T03:03:43;18.23;;;11.00;;
62941;SDS011;49042;47.318;19.874;2023-11-21T03:06:45;21.80;;;12.02;;
62941;SDS011;49042;47.318;19.874;2023-11-21T03:09:46;14.87;;;10.55;;
62941;SDS011;49042;47.318;19.874;2023-11-21T03:12:48;19.85;;;11.00;;
62941;SDS011;49042;47.318;19.874;2023-11-21T03:15:50;18.70;;;11.27;;
62941;SDS011;49042;47.318;19.874;2023-11-21T03:18:51;17.73;;;10.68;;
62941;SDS011;49042;47.318;19.874;2023-11-21T03:21:54;18.60;;;11.05;;
62941;SDS011;49042;47.318;19.874;2023-11-21T03:24:55;16.15;;;10.63;;
62941;SDS011;49042;47.318;19.874;2023-11-21T03:27:57;20.42;;;12.07;;
62941;SDS011;49042;47.318;19.874;2023-11-21T03:30:59;18.12;;;10.93;;
62941;SDS011;49042;47.318;19.874;2023-11-21T03:34:00;17.48;;;12.02;;
62941;SDS011;49042;47.318;19.874;2023-11-21T03:37:02;22.73;;;11.63;;
62941;SDS011;49042;47.318;19.874;2023-11-21T03:40:04;19.12;;;11.82;;
62941;SDS011;49042;47.318;19.874;2023-11-21T03:43:06;17.67;;;11.35;;
62941;SDS011;49042;47.318;19.874;2023-11-21T03:46:07;15.85;;;10.38;;
62941;SDS011;49042;47.318;19.874;2023-11-21T03:49:09;18.27;;;11.70;;
62941;SDS011;49042;47.318;19.874;2023-11-21T03:52:11;27.35;;;11.05;;
62941;SDS011;49042;47.318;19.874;2023-11-21T03:55:13;16.30;;;11.43;;
62941;SDS011;49042;47.318;19.874;2023-11-21T03:58:14;16.65;;;11.02;;
62941;SDS011;49042;47.318;19.874;2023-11-21T04:01:22;19.23;;;9.90;;
62941;SDS011;49042;47.318;19.874;2023-11-21T04:04:24;15.55;;;11.02;;
62941;SDS011;49042;47.318;19.874;2023-11-21T04:07:26;17.75;;;10.70;;
62941;SDS011;49042;47.318;19.874;2023-11-21T04:10:28;20.00;;;11.05;;
62941;SDS011;49042;47.318;19.874;2023-11-21T04:13:30;16.98;;;11.00;;
62941;SDS011;49042;47.318;19.874;2023-11-21T04:16:32;19.70;;;11.02;;
62941;SDS011;49042;47.318;19.874;2023-11-21T04:19:35;19.75;;;11.57;;
62941;SDS011;49042;47.318;19.874;2023-11-21T04:22:40;20.45;;;11.20;;
62941;SDS011;49042;47.318;19.874;2023-11-21T04:25:42;18.35;;;10.80;;
62941;SDS011;49042;47.318;19.874;2023-11-21T04:28:44;18.00;;;11.68;;
62941;SDS011;49042;47.318;19.874;2023-11-21T04:31:46;17.27;;;11.75;;
62941;SDS011;49042;47.318;19.874;2023-11-21T04:34:50;19.50;;;12.27;;
62941;SDS011;49042;47.318;19.874;2023-11-21T04:37:52;18.95;;;12.65;;
62941;SDS011;49042;47.318;19.874;2023-11-21T04:40:53;15.93;;;11.30;;
62941;SDS011;49042;47.318;19.874;2023-11-21T04:43:55;17.02;;;11.95;;
62941;SDS011;49042;47.318;19.874;2023-11-21T04:46:56;22.95;;;12.90;;
62941;SDS011;49042;47.318;19.874;2023-11-21T04:49:58;18.98;;;12.30;;
62941;SDS011;49042;47.318;19.874;2023-11-21T04:53:00;19.77;;;12.52;;
62941;SDS011;49042;47.318;19.874;2023-11-21T04:56:01;20.98;;;12.70;;
62941;SDS011;49042;47.318;19.874;2023-11-21T04:59:04;19.60;;;12.65;;
62941;SDS011;49042;47.318;19.874;2023-11-21T05:02:06;26.50;;;11.65;;
62941;SDS011;49042;47.318;19.874;2023-11-21T05:05:08;17.33;;;11.40;;
62941;SDS011;49042;47.318;19.874;2023-11-21T05:08:11;19.83;;;11.85;;
62941;SDS011;49042;47.318;19.874;2023-11-21T05:11:22;17.98;;;11.23;;
62941;SDS011;49042;47.318;19.874;2023-11-21T05:14:24;18.40;;;12.23;;
62941;SDS011;49042;47.318;19.874;2023-11-21T05:17:26;16.67;;;11.90;;
62941;SDS011;49042;47.318;19.874;2023-11-21T05:20:28;19.65;;;12.65;;
62941;SDS011;49042;47.318;19.874;2023-11-21T05:23:29;20.10;;;12.07;;
62941;SDS011;49042;47.318;19.874;2023-11-21T05:26:31;16.62;;;11.75;;
62941;SDS011;49042;47.318;19.874;2023-11-21T05:29:32;24.35;;;13.32;;
62941;SDS011;49042;47.318;19.874;2023-11-21T05:32:34;20.05;;;11.88;;
62941;SDS011;49042;47.318;19.874;2023-11-21T05:35:36;18.87;;;11.10;;
62941;SDS011;49042;47.318;19.874;2023-11-21T05:38:38;20.00;;;12.02;;
62941;SDS011;49042;47.318;19.874;2023-11-21T05:45:09;23.02;;;12.27;;
62941;SDS011;49042;47.318;19.874;2023-11-21T05:48:13;23.87;;;12.55;;
62941;SDS011;49042;47.318;19.874;2023-11-21T05:51:15;23.05;;;12.30;;
62941;SDS011;49042;47.318;19.874;2023-11-21T05:54:16;25.20;;;12.77;;
62941;SDS011;49042;47.318;19.874;2023-11-21T05:57:18;19.20;;;11.65;;
62941;SDS011;49042;47.318;19.874;2023-11-21T06:00:19;21.45;;;11.77;;
62941;SDS011;49042;47.318;19.874;2023-11-21T06:03:22;16.77;;;11.60;;
62941;SDS011;49042;47.318;19.874;2023-11-21T06:06:24;19.83;;;11.50;;
62941;SDS011;49042;47.318;19.874;2023-11-21T06:09:27;17.58;;;11.07;;
62941;SDS011;49042;47.318;19.874;2023-11-21T06:12:29;19.17;;;11.32;;
62941;SDS011;49042;47.318;19.874;2023-11-21T06:15:30;19.12;;;11.60;;
62941;SDS011;49042;47.318;19.874;2023-11-21T06:18:32;17.20;;;11.50;;
62941;SDS011;49042;47.318;19.874;2023-11-21T06:21:34;19.50;;;12.05;;
62941;SDS011;49042;47.318;19.874;2023-11-21T06:24:36;16.42;;;11.55;;
62941;SDS011;49042;47.318;19.874;2023-11-21T06:27:39;16.27;;;10.32;;
62941;SDS011;49042;47.318;19.874;2023-11-21T06:30:41;22.05;;;10.40;;
62941;SDS011;49042;47.318;19.874;2023-11-21T06:33:43;21.75;;;10.77;;
62941;SDS011;49042;47.318;19.874;2023-11-21T06:36:45;20.62;;;10.75;;
62941;SDS011;49042;47.318;19.874;2023-11-21T06:39:46;17.23;;;10.30;;
62941;SDS011;49042;47.318;19.874;2023-11-21T06:42:48;15.82;;;10.05;;
62941;SDS011;49042;47.318;19.874;2023-11-21T06:45:50;19.23;;;10.73;;
62941;SDS011;49042;47.318;19.874;2023-11-21T06:48:52;19.50;;;10.10;;
62941;SDS011;49042;47.318;19.874;2023-11-21T06:51:53;16.95;;;9.95;;
62941;SDS011;49042;47.318;19.874;2023-11-21T06:54:56;17.90;;;9.35;;
62941;SDS011;49042;47.318;19.874;2023-11-21T06:57:58;18.70;;;9.23;;
62941;SDS011;49042;47.318;19.874;2023-11-21T07:01:01;14.15;;;8.55;;
62941;SDS011;49042;47.318;19.874;2023-11-21T07:04:03;14.55;;;8.80;;
62941;SDS011;49042;47.318;19.874;2023-11-21T07:07:05;15.25;;;8.02;;
62941;SDS011;49042;47.318;19.874;2023-11-21T07:10:08;12.57;;;7.32;;
62941;SDS011;49042;47.318;19.874;2023-11-21T07:13:10;18.42;;;10.52;;
62941;SDS011;49042;47.318;19.874;2023-11-21T07:16:13;15.68;;;9.32;;
62941;SDS011;49042;47.318;19.874;2023-11-21T07:19:16;15.82;;;8.48;;
62941;SDS011;49042;47.318;19.874;2023-11-21T07:22:18;11.63;;;7.78;;
62941;SDS011;49042;47.318;19.874;2023-11-21T07:25:23;19.05;;;7.65;;
62941;SDS011;49042;47.318;19.874;2023-11-21T07:28:25;12.05;;;7.32;;
62941;SDS011;49042;47.318;19.874;2023-11-21T07:31:27;15.55;;;7.10;;
62941;SDS011;49042;47.318;19.874;2023-11-21T07:34:29;9.85;;;6.55;;
62941;SDS011;49042;47.318;19.874;2023-11-21T07:37:30;11.38;;;7.10;;
62941;SDS011;49042;47.318;19.874;2023-11-21T07:40:32;10.63;;;6.50;;
62941;SDS011;49042;47.318;19.874;2023-11-21T07:43:34;15.57;;;7.45;;
62941;SDS011;49042;47.318;19.874;2023-11-21T07:46:36;12.68;;;8.02;;
62941;SDS011;49042;47.318;19.874;2023-11-21T07:49:38;15.32;;;7.53;;
62941;SDS011;49042;47.318;19.874;2023-11-21T07:52:40;16.45;;;9.68;;
62941;SDS011;49042;47.318;19.874;2023-11-21T07:55:41;11.90;;;7.62;;
62941;SDS011;49042;47.318;19.874;2023-11-21T07:58:43;13.68;;;7.75;;
62941;SDS011;49042;47.318;19.874;2023-11-21T08:01:46;15.73;;;7.82;;
62941;SDS011;49042;47.318;19.874;2023-11-21T08:04:47;13.60;;;6.95;;
62941;SDS011;49042;47.318;19.874;2023-11-21T08:07:51;7.78;;;5.62;;
62941;SDS011;49042;47.318;19.874;2023-11-21T08:10:52;13.43;;;6.20;;
62941;SDS011;49042;47.318;19.874;2023-11-21T08:14:01;11.48;;;5.43;;
62941;SDS011;49042;47.318;19.874;2023-11-21T08:17:02;11.23;;;5.90;;
62941;SDS011;49042;47.318;19.874;2023-11-21T08:20:06;11.25;;;5.75;;
62941;SDS011;49042;47.318;19.874;2023-11-21T08:23:10;12.00;;;5.68;;
62941;SDS011;49042;47.318;19.874;2023-11-21T08:26:12;12.90;;;5.18;;
62941;SDS011;49042;47.318;19.874;2023-11-21T08:29:13;13.93;;;5.68;;
62941;SDS011;49042;47.318;19.874;2023-11-21T08:32:15;12.02;;;5.70;;
62941;SDS011;49042;47.318;19.874;2023-11-21T08:35:16;10.38;;;5.10;;
62941;SDS011;49042;47.318;19.874;2023-11-21T08:38:18;12.93;;;5.43;;
62941;SDS011;49042;47.318;19.874;2023-11-21T08:41:20;11.70;;;5.18;;
62941;SDS011;49042;47.318;19.874;2023-11-21T08:44:24;13.48;;;5.05;;
62941;SDS011;49042;47.318;19.874;2023-11-21T08:47:26;9.70;;;5.10;;
62941;SDS011;49042;47.318;19.874;2023-11-21T08:50:28;9.02;;;5.05;;
62941;SDS011;49042;47.318;19.874;2023-11-21T08:53:29;9.27;;;4.97;;
62941;SDS011;49042;47.318;19.874;2023-11-21T08:56:32;13.82;;;6.75;;
62941;SDS011;49042;47.318;19.874;2023-11-21T08:59:33;10.68;;;6.00;;
62941;SDS011;49042;47.318;19.874;2023-11-21T09:02:35;11.68;;;6.43;;
62941;SDS011;49042;47.318;19.874;2023-11-21T09:05:38;12.75;;;6.25;;
62941;SDS011;49042;47.318;19.874;2023-11-21T09:08:40;14.65;;;7.25;;
62941;SDS011;49042;47.318;19.874;2023-11-21T09:11:43;12.65;;;6.20;;
62941;SDS011;49042;47.318;19.874;2023-11-21T09:14:45;14.60;;;5.47;;
62941;SDS011;49042;47.318;19.874;2023-11-21T09:17:47;11.20;;;5.62;;
62941;SDS011;49042;47.318;19.874;2023-11-21T09:20:49;12.63;;;5.85;;
62941;SDS011;49042;47.318;19.874;2023-11-21T09:23:50;11.38;;;5.75;;
62941;SDS011;49042;47.318;19.874;2023-11-21T09:26:52;9.38;;;5.60;;
62941;SDS011;49042;47.318;19.874;2023-11-21T09:29:54;9.82;;;5.70;;
62941;SDS011;49042;47.318;19.874;2023-11-21T09:32:56;17.37;;;5.20;;
62941;SDS011;49042;47.318;19.874;2023-11-21T09:36:00;9.95;;;5.87;;
62941;SDS011;49042;47.318;19.874;2023-11-21T09:39:02;13.13;;;6.47;;
62941;SDS011;49042;47.318;19.874;2023-11-21T09:42:15;11.12;;;6.10;;
62941;SDS011;49042;47.318;19.874;2023-11-21T09:45:19;11.25;;;6.20;;
62941;SDS011;49042;47.318;19.874;2023-11-21T09:48:22;11.73;;;6.32;;
62941;SDS011;49042;47.318;19.874;2023-11-21T09:51:26;13.80;;;6.22;;
62941;SDS011;49042;47.318;19.874;2023-11-21T09:54:31;12.57;;;5.65;;
62941;SDS011;49042;47.318;19.874;2023-11-21T09:57:33;12.18;;;6.40;;
62941;SDS011;49042;47.318;19.874;2023-11-21T10:00:34;11.45;;;6.65;;
62941;SDS011;49042;47.318;19.874;2023-11-21T10:03:36;16.48;;;6.75;;
62941;SDS011;49042;47.318;19.874;2023-11-21T10:06:40;11.52;;;6.00;;
62941;SDS011;49042;47.318;19.874;2023-11-21T10:09:43;12.10;;;6.07;;
62941;SDS011;49042;47.318;19.874;2023-11-21T10:12:52;13.20;;;6.22;;
62941;SDS011;49042;47.318;19.874;2023-11-21T10:15:56;11.27;;;5.80;;
62941;SDS011;49042;47.318;19.874;2023-11-21T10:19:01;10.85;;;5.90;;
62941;SDS011;49042;47.318;19.874;2023-11-21T10:22:12;10.18;;;5.95;;
62941;SDS011;49042;47.318;19.874;2023-11-21T10:25:13;11.15;;;6.65;;
62941;SDS011;49042;47.318;19.874;2023-11-21T10:28:21;11.75;;;6.93;;
62941;SDS011;49042;47.318;19.874;2023-11-21T10:31:23;11.60;;;5.93;;
62941;SDS011;49042;47.318;19.874;2023-11-21T10:34:28;14.35;;;8.18;;
62941;SDS011;49042;47.318;19.874;2023-11-21T10:37:30;13.07;;;5.75;;
62941;SDS011;49042;47.318;19.874;2023-11-21T10:40:31;9.65;;;5.22;;
62941;SDS011;49042;47.318;19.874;2023-11-21T10:43:33;14.80;;;5.00;;
62941;SDS011;49042;47.318;19.874;2023-11-21T10:46:36;14.48;;;5.90;;
62941;SDS011;49042;47.318;19.874;2023-11-21T10:49:38;13.30;;;7.05;;
62941;SDS011;49042;47.318;19.874;2023-11-21T10:52:41;10.82;;;6.32;;
62941;SDS011;49042;47.318;19.874;2023-11-21T10:55:48;15.05;;;6.60;;
62941;SDS011;49042;47.318;19.874;2023-11-21T10:58:50;11.27;;;7.10;;
62941;SDS011;49042;47.318;19.874;2023-11-21T11:01:53;14.48;;;6.80;;
62941;SDS011;49042;47.318;19.874;2023-11-21T11:04:56;14.52;;;5.78;;
62941;SDS011;49042;47.318;19.874;2023-11-21T11:08:05;10.85;;;5.72;;
62941;SDS011;49042;47.318;19.874;2023-11-21T11:11:07;12.30;;;6.20;;
62941;SDS011;49042;47.318;19.874;2023-11-21T11:14:12;11.43;;;7.12;;
62941;SDS011;49042;47.318;19.874;2023-11-21T11:17:14;15.18;;;6.32;;
62941;SDS011;49042;47.318;19.874;2023-11-21T11:20:16;10.25;;;5.10;;
62941;SDS011;49042;47.318;19.874;2023-11-21T11:23:27;9.85;;;5.30;;
62941;SDS011;49042;47.318;19.874;2023-11-21T11:29:38;8.30;;;5.25;;
62941;SDS011;49042;47.318;19.874;2023-11-21T11:38:50;11.40;;;5.10;;
62941;SDS011;49042;47.318;19.874;2023-11-21T11:41:51;13.65;;;5.37;;
62941;SDS011;49042;47.318;19.874;2023-11-21T11:44:53;51.85;;;25.50;;
62941;SDS011;49042;47.318;19.874;2023-11-21T11:47:57;36.03;;;19.52;;
62941;SDS011;49042;47.318;19.874;2023-11-21T11:51:04;13.62;;;7.28;;
62941;SDS011;49042;47.318;19.874;2023-11-21T11:54:06;10.27;;;5.53;;
62941;SDS011;49042;47.318;19.874;2023-11-21T11:57:08;13.30;;;5.30;;
62941;SDS011;49042;47.318;19.874;2023-11-21T12:03:26;6.80;;;4.68;;
62941;SDS011;49042;47.318;19.874;2023-11-21T12:06:34;9.60;;;5.57;;
62941;SDS011;49042;47.318;19.874;2023-11-21T12:09:36;14.77;;;5.90;;
62941;SDS011;49042;47.318;19.874;2023-11-21T12:12:41;8.32;;;5.22;;
62941;SDS011;49042;47.318;19.874;2023-11-21T12:15:42;9.73;;;4.75;;
62941;SDS011;49042;47.318;19.874;2023-11-21T12:18:44;10.25;;;4.82;;
62941;SDS011;49042;47.318;19.874;2023-11-21T12:21:46;10.48;;;5.00;;
62941;SDS011;49042;47.318;19.874;2023-11-21T12:24:48;8.65;;;4.50;;
62941;SDS011;49042;47.318;19.874;2023-11-21T12:27:51;9.52;;;5.20;;
62941;SDS011;49042;47.318;19.874;2023-11-21T12:30:53;13.82;;;5.03;;
62941;SDS011;49042;47.318;19.874;2023-11-21T12:34:08;11.40;;;5.35;;
62941;SDS011;49042;47.318;19.874;2023-11-21T12:37:12;12.73;;;6.03;;
62941;SDS011;49042;47.318;19.874;2023-11-21T12:40:15;8.82;;;5.62;;
62941;SDS011;49042;47.318;19.874;2023-11-21T12:43:17;9.50;;;6.00;;
62941;SDS011;49042;47.318;19.874;2023-11-21T12:46:19;16.10;;;6.60;;
62941;SDS011;49042;47.318;19.874;2023-11-21T12:49:22;12.18;;;5.97;;
62941;SDS011;49042;47.318;19.874;2023-11-21T12:52:23;9.88;;;6.37;;
62941;SDS011;49042;47.318;19.874;2023-11-21T12:55:29;11.63;;;6.25;;
62941;SDS011;49042;47.318;19.874;2023-11-21T12:58:31;13.60;;;6.82;;
62941;SDS011;49042;47.318;19.874;2023-11-21T13:01:35;11.07;;;6.80;;
62941;SDS011;49042;47.318;19.874;2023-11-21T13:04:38;13.27;;;6.45;;
62941;SDS011;49042;47.318;19.874;2023-11-21T13:07:43;13.20;;;6.62;;
62941;SDS011;49042;47.318;19.874;2023-11-21T13:10:49;12.37;;;7.25;;
62941;SDS011;49042;47.318;19.874;2023-11-21T13:13:51;12.57;;;7.55;;
62941;SDS011;49042;47.318;19.874;2023-11-21T13:16:54;13.45;;;7.70;;
62941;SDS011;49042;47.318;19.874;2023-11-21T13:19:56;13.13;;;7.85;;
62941;SDS011;49042;47.318;19.874;2023-11-21T13:22:59;11.88;;;6.80;;
62941;SDS011;49042;47.318;19.874;2023-11-21T13:26:02;14.45;;;7.28;;
62941;SDS011;49042;47.318;19.874;2023-11-21T13:29:08;12.60;;;8.05;;
62941;SDS011;49042;47.318;19.874;2023-11-21T13:32:09;14.25;;;8.10;;
62941;SDS011;49042;47.318;19.874;2023-11-21T13:35:13;28.23;;;8.95;;
62941;SDS011;49042;47.318;19.874;2023-11-21T13:38:21;16.83;;;8.98;;
62941;SDS011;49042;47.318;19.874;2023-11-21T13:41:24;13.93;;;8.15;;
62941;SDS011;49042;47.318;19.874;2023-11-21T13:44:32;13.68;;;8.45;;
62941;SDS011;49042;47.318;19.874;2023-11-21T13:47:39;13.05;;;8.02;;
62941;SDS011;49042;47.318;19.874;2023-11-21T13:50:41;14.87;;;8.40;;
62941;SDS011;49042;47.318;19.874;2023-11-21T13:53:59;12.80;;;8.10;;
62941;SDS011;49042;47.318;19.874;2023-11-21T13:57:00;11.65;;;8.13;;
62941;SDS011;49042;47.318;19.874;2023-11-21T14:00:04;15.35;;;8.23;;
62941;SDS011;49042;47.318;19.874;2023-11-21T14:03:12;13.85;;;8.35;;
62941;SDS011;49042;47.318;19.874;2023-11-21T14:06:23;12.98;;;8.48;;
62941;SDS011;49042;47.318;19.874;2023-11-21T14:09:31;17.17;;;8.30;;
62941;SDS011;49042;47.318;19.874;2023-11-21T14:12:45;15.48;;;9.23;;
62941;SDS011;49042;47.318;19.874;2023-11-21T14:15:46;19.02;;;13.13;;
62941;SDS011;49042;47.318;19.874;2023-11-21T14:18:52;13.93;;;9.80;;
62941;SDS011;49042;47.318;19.874;2023-11-21T14:22:00;21.35;;;9.95;;
62941;SDS011;49042;47.318;19.874;2023-11-21T14:25:02;14.68;;;8.75;;
62941;SDS011;49042;47.318;19.874;2023-11-21T14:28:05;19.08;;;9.63;;
62941;SDS011;49042;47.318;19.874;2023-11-21T14:31:07;14.13;;;8.77;;
62941;SDS011;49042;47.318;19.874;2023-11-21T14:34:13;12.90;;;7.68;;
62941;SDS011;49042;47.318;19.874;2023-11-21T14:37:18;13.88;;;8.50;;
62941;SDS011;49042;47.318;19.874;2023-11-21T14:40:21;23.15;;;8.52;;
62941;SDS011;49042;47.318;19.874;2023-11-21T14:43:25;15.38;;;9.07;;
62941;SDS011;49042;47.318;19.874;2023-11-21T14:46:31;15.60;;;8.90;;
62941;SDS011;49042;47.318;19.874;2023-11-21T14:49:32;13.57;;;8.50;;
62941;SDS011;49042;47.318;19.874;2023-11-21T14:52:47;12.35;;;7.62;;
62941;SDS011;49042;47.318;19.874;2023-11-21T14:55:57;13.52;;;8.77;;
62941;SDS011;49042;47.318;19.874;2023-11-21T14:59:01;13.27;;;9.30;;
62941;SDS011;49042;47.318;19.874;2023-11-21T15:02:18;42.38;;;17.85;;
62941;SDS011;49042;47.318;19.874;2023-11-21T15:05:24;40.35;;;16.17;;
62941;SDS011;49042;47.318;19.874;2023-11-21T15:08:26;28.83;;;15.93;;
62941;SDS011;49042;47.318;19.874;2023-11-21T15:11:33;30.42;;;14.90;;
62941;SDS011;49042;47.318;19.874;2023-11-21T15:14:34;37.28;;;19.20;;
62941;SDS011;49042;47.318;19.874;2023-11-21T15:17:38;38.58;;;19.90;;
62941;SDS011;49042;47.318;19.874;2023-11-21T15:20:41;34.15;;;18.00;;
62941;SDS011;49042;47.318;19.874;2023-11-21T15:23:43;37.45;;;19.12;;
62941;SDS011;49042;47.318;19.874;2023-11-21T15:26:45;49.03;;;22.77;;
62941;SDS011;49042;47.318;19.874;2023-11-21T15:29:46;37.35;;;19.17;;
62941;SDS011;49042;47.318;19.874;2023-11-21T15:32:48;25.55;;;12.18;;
62941;SDS011;49042;47.318;19.874;2023-11-21T15:35:50;21.02;;;12.57;;
62941;SDS011;49042;47.318;19.874;2023-11-21T15:38:51;42.88;;;20.02;;
62941;SDS011;49042;47.318;19.874;2023-11-21T15:41:54;145.98;;;64.97;;
62941;SDS011;49042;47.318;19.874;2023-11-21T15:44:55;61.20;;;30.25;;
62941;SDS011;49042;47.318;19.874;2023-11-21T15:47:57;50.25;;;24.70;;
62941;SDS011;49042;47.318;19.874;2023-11-21T15:50:59;44.13;;;23.17;;
62941;SDS011;49042;47.318;19.874;2023-11-21T15:54:03;42.42;;;22.05;;
62941;SDS011;49042;47.318;19.874;2023-11-21T15:57:05;54.05;;;25.67;;
62941;SDS011;49042;47.318;19.874;2023-11-21T16:00:08;44.47;;;23.38;;
62941;SDS011;49042;47.318;19.874;2023-11-21T16:03:17;54.35;;;25.00;;
62941;SDS011;49042;47.318;19.874;2023-11-21T16:06:19;61.55;;;29.58;;
62941;SDS011;49042;47.318;19.874;2023-11-21T16:09:21;58.92;;;30.67;;
62941;SDS011;49042;47.318;19.874;2023-11-21T16:12:32;46.22;;;24.30;;
62941;SDS011;49042;47.318;19.874;2023-11-21T16:15:34;56.05;;;25.73;;
62941;SDS011;49042;47.318;19.874;2023-11-21T16:18:35;42.08;;;21.02;;
62941;SDS011;49042;47.318;19.874;2023-11-21T16:21:37;35.33;;;19.20;;
62941;SDS011;49042;47.318;19.874;2023-11-21T16:24:39;32.42;;;17.17;;
62941;SDS011;49042;47.318;19.874;2023-11-21T16:27:41;42.62;;;18.85;;
62941;SDS011;49042;47.318;19.874;2023-11-21T16:30:43;32.33;;;17.70;;
62941;SDS011;49042;47.318;19.874;2023-11-21T16:33:46;37.13;;;17.33;;
62941;SDS011;49042;47.318;19.874;2023-11-21T16:36:47;32.17;;;17.10;;
62941;SDS011;49042;47.318;19.874;2023-11-21T16:39:52;50.12;;;26.23;;
62941;SDS011;49042;47.318;19.874;2023-11-21T16:42:54;45.65;;;27.60;;
62941;SDS011;49042;47.318;19.874;2023-11-21T16:45:56;79.78;;;37.15;;
62941;SDS011;49042;47.318;19.874;2023-11-21T16:48:57;71.15;;;33.20;;
62941;SDS011;49042;47.318;19.874;2023-11-21T16:51:59;69.68;;;33.97;;
62941;SDS011;49042;47.318;19.874;2023-11-21T16:55:04;40.28;;;18.60;;
62941;SDS011;49042;47.318;19.874;2023-11-21T16:58:05;31.58;;;18.80;;
62941;SDS011;49042;47.318;19.874;2023-11-21T17:01:07;45.30;;;21.10;;
62941;SDS011;49042;47.318;19.874;2023-11-21T17:04:09;27.87;;;15.63;;
62941;SDS011;49042;47.318;19.874;2023-11-21T17:07:16;29.15;;;16.55;;
62941;SDS011;49042;47.318;19.874;2023-11-21T17:10:18;29.92;;;17.80;;
62941;SDS011;49042;47.318;19.874;2023-11-21T17:13:21;34.60;;;18.67;;
62941;SDS011;49042;47.318;19.874;2023-11-21T17:16:23;34.10;;;20.33;;
62941;SDS011;49042;47.318;19.874;2023-11-21T17:19:24;36.38;;;21.62;;
62941;SDS011;49042;47.318;19.874;2023-11-21T17:22:26;39.17;;;23.55;;
62941;SDS011;49042;47.318;19.874;2023-11-21T17:25:28;39.50;;;22.42;;
62941;SDS011;49042;47.318;19.874;2023-11-21T17:28:30;38.58;;;23.35;;
62941;SDS011;49042;47.318;19.874;2023-11-21T17:31:31;38.58;;;25.30;;
62941;SDS011;49042;47.318;19.874;2023-11-21T17:34:33;44.30;;;25.23;;
62941;SDS011;49042;47.318;19.874;2023-11-21T17:37:34;49.13;;;27.17;;
62941;SDS011;49042;47.318;19.874;2023-11-21T17:40:36;47.88;;;27.05;;
62941;SDS011;49042;47.318;19.874;2023-11-21T17:43:38;43.05;;;25.50;;
62941;SDS011;49042;47.318;19.874;2023-11-21T17:46:43;44.03;;;25.35;;
62941;SDS011;49042;47.318;19.874;2023-11-21T17:49:44;44.75;;;25.05;;
62941;SDS011;49042;47.318;19.874;2023-11-21T17:52:46;46.58;;;25.10;;
62941;SDS011;49042;47.318;19.874;2023-11-21T17:55:48;39.20;;;23.98;;
62941;SDS011;49042;47.318;19.874;2023-11-21T17:58:50;39.63;;;22.17;;